createdAt,value
2018-01-03T00:02:22.635Z,10.37
2018-01-03T00:04:50.461Z,8.73
2018-01-03T00:07:17.886Z,10.20
2018-01-03T00:09:45.340Z,9.50
2018-01-03T00:12:12.778Z,10.00
2018-01-03T00:14:40.203Z,9.57
2018-01-03T00:17:08.035Z,7.53
2018-01-03T00:19:35.475Z,9.27
2018-01-03T00:22:02.909Z,8.47
2018-01-03T00:24:30.366Z,9.73
2018-01-03T00:26:57.787Z,8.10
2018-01-03T00:29:25.215Z,8.47
2018-01-03T00:31:52.665Z,7.30
2018-01-03T00:34:20.082Z,7.93
2018-01-03T00:36:47.516Z,7.90
2018-01-03T00:39:15.343Z,7.83
2018-01-03T00:41:42.778Z,10.13
2018-01-03T00:44:10.210Z,7.60
2018-01-03T00:46:37.642Z,8.47
2018-01-03T00:49:05.463Z,7.20
2018-01-03T00:51:32.901Z,7.77
2018-01-03T00:54:00.435Z,7.30
2018-01-03T00:56:27.860Z,6.23
2018-01-03T00:58:55.691Z,6.87
2018-01-03T01:01:23.134Z,6.57
2018-01-03T01:03:50.562Z,8.13
2018-01-03T01:06:17.992Z,7.60
2018-01-03T01:08:45.827Z,7.23
2018-01-03T01:11:13.256Z,5.80
2018-01-03T01:13:40.688Z,6.03
2018-01-03T01:16:08.127Z,5.00
2018-01-03T01:18:35.959Z,7.40
2018-01-03T01:21:03.386Z,6.80
2018-01-03T01:23:30.815Z,6.80
2018-01-03T01:25:58.248Z,7.00
2018-01-03T01:28:26.067Z,5.97
2018-01-03T01:30:53.668Z,6.50
2018-01-03T01:33:21.492Z,6.30
2018-01-03T01:35:48.919Z,7.57
2018-01-03T01:38:16.351Z,6.33
2018-01-03T01:40:44.176Z,6.40
2018-01-03T01:43:11.915Z,6.33
2018-01-03T01:45:39.347Z,5.87
2018-01-03T01:48:06.791Z,6.00
2018-01-03T01:50:34.610Z,6.17
2018-01-03T01:53:02.038Z,5.97
2018-01-03T01:55:29.460Z,5.47
2018-01-03T01:57:57.471Z,5.47
2018-01-03T02:00:24.900Z,6.43
2018-01-03T02:02:52.335Z,7.10
2018-01-03T02:05:20.172Z,6.27
2018-01-03T02:07:47.599Z,5.20
2018-01-03T02:10:15.027Z,5.50
2018-01-03T02:12:42.468Z,8.80
2018-01-03T02:15:10.293Z,6.43
2018-01-03T02:17:37.728Z,6.20
2018-01-03T02:20:05.184Z,6.60
2018-01-03T02:22:32.614Z,6.97
2018-01-03T02:25:00.041Z,6.13
2018-01-03T02:27:28.216Z,6.80
2018-01-03T02:29:56.044Z,6.40
2018-01-03T02:32:23.475Z,6.37
2018-01-03T02:34:50.971Z,6.27
2018-01-03T02:37:18.386Z,5.90
2018-01-03T02:42:30.895Z,6.83
2018-01-03T02:44:58.328Z,8.23
2018-01-03T02:47:26.159Z,7.17
2018-01-03T02:49:53.584Z,7.70
2018-01-03T02:52:21.007Z,6.60
2018-01-03T02:54:48.551Z,6.47
2018-01-03T02:57:16.367Z,7.10
2018-01-03T02:59:43.804Z,7.73
2018-01-03T03:02:11.261Z,7.40
2018-01-03T03:04:38.692Z,7.20
2018-01-03T03:07:06.115Z,5.70
2018-01-03T03:09:33.735Z,6.70
2018-01-03T03:12:01.166Z,6.87
2018-01-03T03:14:28.595Z,6.30
2018-01-03T03:16:56.531Z,7.20
2018-01-03T03:19:23.967Z,6.33
2018-01-03T03:21:51.382Z,7.40
2018-01-03T03:24:18.822Z,6.87
2018-01-03T03:26:46.641Z,6.37
2018-01-03T03:29:14.070Z,7.03
2018-01-03T03:31:41.504Z,7.40
2018-01-03T03:34:09.339Z,6.40
2018-01-03T03:36:36.775Z,6.87
2018-01-03T03:39:04.203Z,5.97
2018-01-03T03:41:31.647Z,5.30
2018-01-03T03:43:59.067Z,6.30
2018-01-03T03:46:26.497Z,6.43
2018-01-03T03:48:53.919Z,5.57
2018-01-03T03:51:21.367Z,7.53
2018-01-03T03:53:48.802Z,5.37
2018-01-03T03:56:16.627Z,5.77
2018-01-03T03:58:44.276Z,4.73
2018-01-03T04:01:11.703Z,5.40
2018-01-03T04:03:39.122Z,5.27
2018-01-03T04:06:06.664Z,5.73
2018-01-03T04:08:34.091Z,5.30
2018-01-03T04:11:01.522Z,5.37
2018-01-03T04:13:28.962Z,5.80
2018-01-03T04:15:56.400Z,6.23
2018-01-03T04:18:23.845Z,6.27
2018-01-03T04:20:51.425Z,5.30
2018-01-03T04:23:19.240Z,5.37
2018-01-03T04:25:46.678Z,6.50
2018-01-03T04:28:14.110Z,5.10
2018-01-03T04:30:41.539Z,4.67
2018-01-03T04:33:08.971Z,6.00
2018-01-03T04:35:36.609Z,5.87
2018-01-03T04:38:04.036Z,5.50
2018-01-03T04:40:31.464Z,5.50
2018-01-03T04:42:59.298Z,5.00
2018-01-03T04:45:26.728Z,5.37
2018-01-03T04:47:54.159Z,5.27
2018-01-03T04:50:21.592Z,4.60
2018-01-03T04:52:49.408Z,4.50
2018-01-03T04:55:16.834Z,4.30
2018-01-03T04:57:44.264Z,3.80
2018-01-03T05:00:12.082Z,3.83
2018-01-03T05:02:39.524Z,4.27
2018-01-03T05:05:06.958Z,4.37
2018-01-03T05:07:34.383Z,4.30
2018-01-03T05:10:01.815Z,4.23
2018-01-03T05:12:29.248Z,4.50
2018-01-03T05:14:56.672Z,4.10
2018-01-03T05:17:24.507Z,3.27
2018-01-03T05:19:51.935Z,4.17
2018-01-03T05:22:19.360Z,3.90
2018-01-03T05:24:47.772Z,3.87
2018-01-03T05:27:15.187Z,4.13
2018-01-03T05:29:42.616Z,3.00
2018-01-03T05:32:10.455Z,4.07
2018-01-03T05:34:37.882Z,16.63
2018-01-03T05:37:05.316Z,3.73
2018-01-03T05:39:32.959Z,3.50
2018-01-03T05:42:00.785Z,4.37
2018-01-03T05:44:28.210Z,3.40
2018-01-03T05:46:55.656Z,3.80
2018-01-03T05:49:23.078Z,3.80
2018-01-03T05:51:50.899Z,3.70
2018-01-03T05:54:18.345Z,3.53
2018-01-03T05:56:45.772Z,4.20
2018-01-03T05:59:13.197Z,3.33
2018-01-03T06:01:40.644Z,3.60
2018-01-03T06:04:08.075Z,3.27
2018-01-03T06:06:35.499Z,3.20
2018-01-03T06:09:02.935Z,2.70
2018-01-03T06:11:30.363Z,2.90
2018-01-03T06:13:57.783Z,2.50
2018-01-03T06:16:25.212Z,2.50
2018-01-03T06:18:52.662Z,2.63
2018-01-03T06:21:20.082Z,2.67
2018-01-03T06:23:47.511Z,2.27
2018-01-03T06:26:14.948Z,2.27
2018-01-03T06:28:42.375Z,2.40
2018-01-03T06:31:09.811Z,2.53
2018-01-03T06:33:37.640Z,2.10
2018-01-03T06:36:05.075Z,2.53
2018-01-03T06:38:32.515Z,2.53
2018-01-03T06:40:59.945Z,2.30
2018-01-03T06:43:27.760Z,2.90
2018-01-03T06:45:55.203Z,2.67
2018-01-03T06:48:22.619Z,3.80
2018-01-03T06:50:50.051Z,3.37
2018-01-03T06:53:17.584Z,3.50
2018-01-03T06:55:45.025Z,3.13
2018-01-03T06:58:12.456Z,3.50
2018-01-03T07:00:39.904Z,3.50
2018-01-03T07:03:07.719Z,3.43
2018-01-03T07:05:35.149Z,3.60
2018-01-03T07:08:02.747Z,4.27
2018-01-03T07:10:30.172Z,4.90
2018-01-03T07:12:57.599Z,3.77
2018-01-03T07:15:25.892Z,4.33
2018-01-03T07:17:53.329Z,4.27
2018-01-03T07:20:20.760Z,4.03
2018-01-03T07:22:48.599Z,3.60
2018-01-03T07:25:16.019Z,4.00
2018-01-03T07:27:43.452Z,4.70
2018-01-03T07:30:10.915Z,3.73
2018-01-03T07:32:38.711Z,5.37
2018-01-03T07:35:06.146Z,4.73
2018-01-03T07:37:33.588Z,5.83
2018-01-03T07:40:01.033Z,5.70
2018-01-03T07:42:28.844Z,4.77
2018-01-03T07:44:56.278Z,5.20
2018-01-03T07:47:23.720Z,5.83
2018-01-03T07:49:51.167Z,4.57
2018-01-03T07:52:18.590Z,4.87
2018-01-03T07:54:46.436Z,4.27
2018-01-03T07:57:13.868Z,4.40
2018-01-03T07:59:41.290Z,4.10
2018-01-03T08:02:08.725Z,4.00
2018-01-03T08:04:36.547Z,4.20
2018-01-03T08:07:03.987Z,3.57
2018-01-03T08:09:31.527Z,4.13
2018-01-03T08:11:58.947Z,4.40
2018-01-03T08:14:26.766Z,4.60
2018-01-03T08:16:54.216Z,3.57
2018-01-03T08:19:21.643Z,3.83
2018-01-03T08:21:49.071Z,3.97
2018-01-03T08:24:16.519Z,3.53
2018-01-03T08:26:43.951Z,3.70
2018-01-03T08:29:11.855Z,3.53
2018-01-03T08:31:39.476Z,4.00
2018-01-03T08:34:06.915Z,3.20
2018-01-03T08:36:34.343Z,4.77
2018-01-03T08:39:01.773Z,3.80
2018-01-03T08:41:29.205Z,3.30
2018-01-03T08:43:56.671Z,3.30
2018-01-03T08:46:24.121Z,5.13
2018-01-03T08:48:52.090Z,3.80
2018-01-03T08:51:19.591Z,3.50
2018-01-03T08:53:47.423Z,4.10
2018-01-03T08:56:15.288Z,5.27
2018-01-03T08:58:42.737Z,3.70
2018-01-03T09:01:10.480Z,3.87
2018-01-03T09:03:37.906Z,4.73
2018-01-03T09:06:05.328Z,2.90
2018-01-03T09:08:33.179Z,3.40
2018-01-03T09:11:00.769Z,4.17
2018-01-03T09:13:28.416Z,3.30
2018-01-03T09:15:55.864Z,4.33
2018-01-03T09:18:23.715Z,4.80
2018-01-03T09:20:51.452Z,3.60
2018-01-03T09:23:18.900Z,4.17
2018-01-03T09:25:46.341Z,3.80
2018-01-03T09:28:13.771Z,3.70
2018-01-03T09:30:41.216Z,3.57
2018-01-03T09:33:09.047Z,3.63
2018-01-03T09:35:36.483Z,3.43
2018-01-03T09:38:03.982Z,4.00
2018-01-03T09:40:31.391Z,4.33
2018-01-03T09:42:58.829Z,3.63
2018-01-03T09:45:26.491Z,3.77
2018-01-03T09:47:53.916Z,3.47
2018-01-03T09:50:21.343Z,4.30
2018-01-03T09:52:48.804Z,3.77
2018-01-03T09:55:16.219Z,4.73
2018-01-03T09:57:43.649Z,4.50
2018-01-03T10:00:11.327Z,3.40
2018-01-03T10:02:38.764Z,3.40
2018-01-03T10:05:06.182Z,3.30
2018-01-03T10:07:33.619Z,3.77
2018-01-03T10:10:01.068Z,4.03
2018-01-03T10:12:28.494Z,2.50
2018-01-03T10:14:55.919Z,4.10
2018-01-03T10:17:23.748Z,3.87
2018-01-03T10:19:51.172Z,3.50
2018-01-03T10:22:18.600Z,3.83
2018-01-03T10:24:46.045Z,3.40
2018-01-03T10:27:13.856Z,3.47
2018-01-03T10:29:41.294Z,3.83
2018-01-03T10:32:08.734Z,3.47
2018-01-03T10:34:36.172Z,4.00
2018-01-03T10:37:03.998Z,4.87
2018-01-03T10:39:31.734Z,3.80
2018-01-03T10:41:59.166Z,4.23
2018-01-03T10:44:26.597Z,4.70
2018-01-03T10:46:54.915Z,3.10
2018-01-03T10:49:22.347Z,3.60
2018-01-03T10:51:49.786Z,4.70
2018-01-03T10:54:17.905Z,4.00
2018-01-03T10:56:45.329Z,3.30
2018-01-03T10:59:12.769Z,3.60
2018-01-03T11:01:40.600Z,3.77
2018-01-03T11:04:08.028Z,3.20
2018-01-03T11:06:35.455Z,3.80
2018-01-03T11:09:02.995Z,4.77
2018-01-03T11:11:30.824Z,3.27
2018-01-03T11:13:58.263Z,3.40
2018-01-03T11:16:25.712Z,3.10
2018-01-03T11:18:53.149Z,3.30
2018-01-03T11:21:20.575Z,3.77
2018-01-03T11:23:48.424Z,3.20
2018-01-03T11:26:15.847Z,3.47
2018-01-03T11:28:43.270Z,3.30
2018-01-03T11:31:10.702Z,4.23
2018-01-03T11:33:38.526Z,3.60
2018-01-03T11:36:05.983Z,3.80
2018-01-03T11:38:33.387Z,3.03
2018-01-03T11:41:00.831Z,3.60
2018-01-03T11:43:28.659Z,4.20
2018-01-03T11:45:56.092Z,3.73
2018-01-03T11:48:23.537Z,5.30
2018-01-03T11:50:50.965Z,3.07
2018-01-03T11:53:18.788Z,2.63
2018-01-03T11:55:46.235Z,3.30
2018-01-03T11:58:13.655Z,3.03
2018-01-03T12:00:41.083Z,4.37
2018-01-03T12:03:09.160Z,4.30
2018-01-03T12:05:36.979Z,3.37
2018-01-03T12:08:04.412Z,3.53
2018-01-03T12:10:31.858Z,3.50
2018-01-03T12:12:59.291Z,3.60
2018-01-03T12:15:27.111Z,3.57
2018-01-03T12:17:54.555Z,3.70
2018-01-03T12:20:21.995Z,4.30
2018-01-03T12:22:49.450Z,3.70
2018-01-03T12:25:16.884Z,3.37
2018-01-03T12:27:44.311Z,3.97
2018-01-03T12:30:12.157Z,3.80
2018-01-03T12:32:39.588Z,4.53
2018-01-03T12:35:07.015Z,3.50
2018-01-03T12:37:34.474Z,4.00
2018-01-03T12:40:01.901Z,3.50
2018-01-03T12:42:29.718Z,3.93
2018-01-03T12:44:57.163Z,3.80
2018-01-03T12:47:24.604Z,3.83
2018-01-03T12:49:52.035Z,2.67
2018-01-03T12:52:19.859Z,3.17
2018-01-03T12:54:47.296Z,2.83
2018-01-03T12:57:14.743Z,2.30
2018-01-03T12:59:42.402Z,3.20
2018-01-03T13:02:09.863Z,3.87
2018-01-03T13:04:37.296Z,3.40
2018-01-03T13:07:04.750Z,2.90
2018-01-03T13:09:34.761Z,2.90
2018-01-03T13:12:02.421Z,2.03
2018-01-03T13:14:30.415Z,2.70
2018-01-03T13:16:57.855Z,2.50
2018-01-03T13:19:25.279Z,1.77
2018-01-03T13:21:53.099Z,2.60
2018-01-03T13:24:20.528Z,3.83
2018-01-03T13:26:47.959Z,2.20
2018-01-03T13:29:15.600Z,2.93
2018-01-03T13:31:43.023Z,2.17
2018-01-03T13:34:10.775Z,2.30
2018-01-03T13:36:38.200Z,2.20
2018-01-03T13:39:05.623Z,2.10
2018-01-03T13:41:33.059Z,1.70
2018-01-03T13:44:00.502Z,3.53
2018-01-03T13:46:27.935Z,2.43
2018-01-03T13:48:55.395Z,2.70
2018-01-03T13:51:22.819Z,2.27
2018-01-03T13:53:50.675Z,3.00
2018-01-03T13:56:18.792Z,2.53
2018-01-03T13:58:46.656Z,3.43
2018-01-03T14:01:14.058Z,2.37
2018-01-03T14:03:41.895Z,2.10
2018-01-03T14:06:09.330Z,2.80
2018-01-03T14:08:36.760Z,2.90
2018-01-03T14:11:04.183Z,2.93
2018-01-03T14:13:32.037Z,2.23
2018-01-03T14:15:59.460Z,3.17
2018-01-03T14:18:26.884Z,2.60
2018-01-03T14:20:54.347Z,1.90
2018-01-03T14:23:22.135Z,2.93
2018-01-03T14:25:49.564Z,2.87
2018-01-03T14:28:17.249Z,2.67
2018-01-03T14:30:44.848Z,3.03
2018-01-03T14:33:12.292Z,2.70
2018-01-03T14:35:39.919Z,3.00
2018-01-03T14:38:07.340Z,3.13
2018-01-03T14:40:34.777Z,2.50
2018-01-03T14:43:02.611Z,3.33
2018-01-03T14:45:30.037Z,3.10
2018-01-03T14:47:57.478Z,3.30
2018-01-03T14:50:24.932Z,2.20
2018-01-03T14:52:52.350Z,2.63
2018-01-03T14:55:20.171Z,1.87
2018-01-03T14:57:47.613Z,2.43
2018-01-03T15:00:15.048Z,2.63
2018-01-03T15:02:42.525Z,2.50
2018-01-03T15:05:09.896Z,1.97
2018-01-03T15:07:37.317Z,2.97
2018-01-03T15:10:04.751Z,1.90
2018-01-03T15:12:32.596Z,3.00
2018-01-03T15:15:00.030Z,4.03
2018-01-03T15:17:27.599Z,3.00
2018-01-03T15:19:55.294Z,2.40
2018-01-03T15:22:23.113Z,2.50
2018-01-03T15:24:50.549Z,2.60
2018-01-03T15:27:18.003Z,3.20
2018-01-03T15:29:45.424Z,2.40
2018-01-03T15:32:13.244Z,2.60
2018-01-03T15:34:40.992Z,2.30
2018-01-03T15:37:08.415Z,2.40
2018-01-03T15:39:35.876Z,2.80
2018-01-03T15:42:03.319Z,2.17
2018-01-03T15:44:30.747Z,2.80
2018-01-03T15:46:58.171Z,2.87
2018-01-03T15:49:25.598Z,3.30
2018-01-03T15:51:53.033Z,2.50
2018-01-03T15:54:20.852Z,3.17
2018-01-03T15:56:48.288Z,3.30
2018-01-03T15:59:15.949Z,3.30
2018-01-03T16:01:43.411Z,3.60
2018-01-03T16:04:10.830Z,3.47
2018-01-03T16:06:38.263Z,4.00
2018-01-03T16:09:05.686Z,2.70
2018-01-03T16:11:33.123Z,3.27
2018-01-03T16:14:00.556Z,2.77
2018-01-03T16:16:27.979Z,3.43
2018-01-03T16:18:56.099Z,2.90
2018-01-03T16:21:23.527Z,2.70
2018-01-03T16:23:50.947Z,2.77
2018-01-03T16:26:18.387Z,2.30
2018-01-03T16:28:45.823Z,1.53
2018-01-03T16:31:13.248Z,2.13
2018-01-03T16:33:40.709Z,2.07
2018-01-03T16:36:08.124Z,2.20
2018-01-03T16:38:35.559Z,2.33
2018-01-03T16:41:02.987Z,2.10
2018-01-03T16:43:30.411Z,2.03
2018-01-03T16:45:57.862Z,2.10
2018-01-03T16:48:25.666Z,2.03
2018-01-03T16:50:53.436Z,2.40
2018-01-03T16:53:20.887Z,1.63
2018-01-03T16:55:48.311Z,1.90
2018-01-03T16:58:15.751Z,2.90
2018-01-03T17:00:43.589Z,2.33
2018-01-03T17:03:11.027Z,1.90
2018-01-03T17:05:38.479Z,1.90
2018-01-03T17:08:05.911Z,2.10
2018-01-03T17:10:33.337Z,2.13
2018-01-03T17:13:00.772Z,2.80
2018-01-03T17:15:28.213Z,1.80
2018-01-03T17:17:55.650Z,2.77
2018-01-03T17:20:23.092Z,2.47
2018-01-03T17:22:50.515Z,3.00
2018-01-03T17:25:17.944Z,3.20
2018-01-03T17:27:45.407Z,3.83
2018-01-03T17:30:13.232Z,3.63
2018-01-03T17:32:40.664Z,3.10
2018-01-03T17:35:08.102Z,2.20
2018-01-03T17:37:35.527Z,3.73
2018-01-03T17:40:03.370Z,2.43
2018-01-03T17:42:30.797Z,3.10
2018-01-03T17:44:58.222Z,3.20
2018-01-03T17:47:25.761Z,3.57
2018-01-03T17:49:53.594Z,3.50
2018-01-03T17:52:21.026Z,5.80
2018-01-03T17:54:48.465Z,3.60
2018-01-03T17:57:15.888Z,3.53
2018-01-03T17:59:43.318Z,2.40
2018-01-03T18:02:10.751Z,2.60
2018-01-03T18:04:38.187Z,2.87
2018-01-03T18:07:05.636Z,3.20
2018-01-03T18:09:33.063Z,3.03
2018-01-03T18:12:00.884Z,2.10
2018-01-03T18:14:28.333Z,2.90
2018-01-03T18:16:55.762Z,2.50
2018-01-03T18:19:23.184Z,2.60
2018-01-03T18:21:50.619Z,2.00
2018-01-03T18:24:18.046Z,2.87
2018-01-03T18:26:45.472Z,2.23
2018-01-03T18:29:12.937Z,4.50
2018-01-03T18:31:40.354Z,2.77
2018-01-03T18:34:07.784Z,2.30
2018-01-03T18:36:35.317Z,1.93
2018-01-03T18:39:02.741Z,2.20
2018-01-03T18:41:30.565Z,2.30
2018-01-03T18:43:58.255Z,3.80
2018-01-03T18:46:26.089Z,2.50
2018-01-03T18:48:53.516Z,2.80
2018-01-03T18:51:20.976Z,3.30
2018-01-03T18:53:48.427Z,3.00
2018-01-03T18:56:15.831Z,2.80
2018-01-03T18:58:43.664Z,2.03
2018-01-03T19:01:11.091Z,2.20
2018-01-03T19:03:38.534Z,2.30
2018-01-03T19:06:05.967Z,2.37
2018-01-03T19:08:33.786Z,6.07
2018-01-03T19:11:01.227Z,7.20
2018-01-03T19:13:28.656Z,2.47
2018-01-03T19:15:56.086Z,2.03
2018-01-03T19:18:23.535Z,1.87
2018-01-03T19:20:50.971Z,1.93
2018-01-03T19:23:18.399Z,2.60
2018-01-03T19:25:45.835Z,2.30
2018-01-03T19:28:13.268Z,5.67
2018-01-03T19:30:41.092Z,4.03
2018-01-03T19:33:08.776Z,2.60
2018-01-03T19:35:36.198Z,2.67
2018-01-03T19:38:03.642Z,2.53
2018-01-03T19:40:31.067Z,3.60
2018-01-03T19:42:59.384Z,3.00
2018-01-03T19:45:26.807Z,3.00
2018-01-03T19:47:54.231Z,3.03
2018-01-03T19:50:21.666Z,3.33
2018-01-03T19:52:49.095Z,2.27
2018-01-03T19:55:16.524Z,2.63
2018-01-03T19:57:43.971Z,4.27
2018-01-03T20:00:11.396Z,4.30
2018-01-03T20:02:38.827Z,2.77
2018-01-03T20:05:06.581Z,2.93
2018-01-03T20:07:34.375Z,3.27
2018-01-03T20:10:01.814Z,3.07
2018-01-03T20:12:29.271Z,5.43
2018-01-03T20:14:56.696Z,3.50
2018-01-03T20:17:24.127Z,4.63
2018-01-03T20:19:51.583Z,6.07
2018-01-03T20:22:19.401Z,3.70
2018-01-03T20:24:46.828Z,6.30
2018-01-03T20:27:14.274Z,5.97
2018-01-03T20:29:41.702Z,5.33
2018-01-03T20:32:09.525Z,6.33
2018-01-03T20:34:37.282Z,7.37
2018-01-03T20:37:04.713Z,5.83
2018-01-03T20:39:32.143Z,4.90
2018-01-03T20:41:59.599Z,5.83
2018-01-03T20:44:27.035Z,5.33
2018-01-03T20:46:54.855Z,4.30
2018-01-03T20:49:22.316Z,4.60
2018-01-03T20:51:49.746Z,6.30
2018-01-03T20:54:17.206Z,3.27
2018-01-03T20:56:44.880Z,5.83
2018-01-03T20:59:12.304Z,4.90
2018-01-03T21:01:39.738Z,6.70
2018-01-03T21:04:07.591Z,4.83
2018-01-03T21:06:35.016Z,4.70
2018-01-03T21:09:02.450Z,4.70
2018-01-03T21:11:29.907Z,3.97
2018-01-03T21:13:57.332Z,4.93
2018-01-03T21:16:24.763Z,4.33
2018-01-03T21:18:52.476Z,4.77
2018-01-03T21:21:19.936Z,4.73
2018-01-03T21:23:47.363Z,4.27
2018-01-03T21:26:15.053Z,5.40
2018-01-03T21:28:42.483Z,5.30
2018-01-03T21:31:09.916Z,5.00
2018-01-03T21:33:37.771Z,4.50
2018-01-03T21:36:05.597Z,5.00
2018-01-03T21:38:33.019Z,4.90
2018-01-03T21:41:00.451Z,3.90
2018-01-03T21:43:27.895Z,4.70
2018-01-03T21:45:55.753Z,4.93
2018-01-03T21:48:23.154Z,4.90
2018-01-03T21:50:50.927Z,4.07
2018-01-03T21:53:18.359Z,4.00
2018-01-03T21:55:45.796Z,4.20
2018-01-03T21:58:13.641Z,3.00
2018-01-03T22:00:41.064Z,3.67
2018-01-03T22:03:08.491Z,3.50
2018-01-03T22:05:35.944Z,4.10
2018-01-03T22:08:03.384Z,4.20
2018-01-03T22:10:31.198Z,3.20
2018-01-03T22:12:58.626Z,3.73
2018-01-03T22:15:26.061Z,4.10
2018-01-03T22:17:54.139Z,3.40
2018-01-03T22:20:21.576Z,3.63
2018-01-03T22:22:49.403Z,4.20
2018-01-03T22:25:16.852Z,3.83
2018-01-03T22:27:44.289Z,3.97
2018-01-03T22:30:11.714Z,4.93
2018-01-03T22:32:39.478Z,4.80
2018-01-03T22:35:06.915Z,4.20
2018-01-03T22:37:34.735Z,4.20
2018-01-03T22:40:02.188Z,5.10
2018-01-03T22:42:29.623Z,4.80
2018-01-03T22:44:57.056Z,5.07
2018-01-03T22:47:24.889Z,3.93
2018-01-03T22:49:52.324Z,4.87
2018-01-03T22:52:19.750Z,4.33
2018-01-03T22:54:47.188Z,4.03
2018-01-03T22:57:14.619Z,4.50
2018-01-03T22:59:42.047Z,4.47
2018-01-03T23:02:09.511Z,4.93
2018-01-03T23:04:36.943Z,4.63
2018-01-03T23:07:04.376Z,4.00
2018-01-03T23:09:31.824Z,5.23
2018-01-03T23:11:59.255Z,4.27
2018-01-03T23:14:27.080Z,5.20
2018-01-03T23:16:54.784Z,3.93
2018-01-03T23:19:22.650Z,5.57
2018-01-03T23:21:50.069Z,4.40
2018-01-03T23:24:17.515Z,4.77
2018-01-03T23:26:44.953Z,4.33
2018-01-03T23:29:12.384Z,4.90
2018-01-03T23:31:39.836Z,4.63
2018-01-03T23:34:07.676Z,4.77
2018-01-03T23:36:35.108Z,5.10
2018-01-03T23:39:02.559Z,5.27
2018-01-03T23:41:29.980Z,6.53
2018-01-03T23:43:57.411Z,5.13
2018-01-03T23:46:25.252Z,4.47
2018-01-03T23:48:52.812Z,3.60
2018-01-03T23:51:20.252Z,5.20
2018-01-03T23:53:47.675Z,4.50
2018-01-03T23:56:15.140Z,6.97
2018-01-03T23:58:42.549Z,5.77
